createdAt,value
2022-11-20T00:01:10.764Z,-5.20
2022-11-20T00:07:12.698Z,-5.30
2022-11-20T00:13:15.017Z,-5.30
2022-11-20T00:19:17.064Z,-5.40
2022-11-20T00:25:19.064Z,-5.40
2022-11-20T00:31:21.556Z,-5.40
2022-11-20T00:37:23.452Z,-5.40
2022-11-20T00:43:25.956Z,-5.50
2022-11-20T00:49:27.863Z,-5.50
2022-11-20T00:55:29.735Z,-5.60
2022-11-20T01:01:31.753Z,-5.60
2022-11-20T01:07:33.755Z,-5.70
2022-11-20T01:13:38.565Z,-5.70
2022-11-20T01:19:40.464Z,-5.70
2022-11-20T01:25:42.455Z,-5.80
2022-11-20T01:31:45.170Z,-5.80
2022-11-20T01:37:47.090Z,-5.90
2022-11-20T01:43:49.044Z,-5.90
2022-11-20T01:50:05.506Z,-6.00
2022-11-20T01:56:11.314Z,-6.00
2022-11-20T02:02:13.281Z,-6.00
2022-11-20T02:08:15.462Z,-6.00
2022-11-20T02:14:17.438Z,-5.90
2022-11-20T02:20:22.026Z,-5.90
2022-11-20T02:26:24.938Z,-6.00
2022-11-20T02:32:29.573Z,-6.10
2022-11-20T02:38:31.594Z,-6.10
2022-11-20T02:44:33.574Z,-6.10
2022-11-20T02:50:39.869Z,-6.20
2022-11-20T02:56:41.975Z,-6.20
2022-11-20T03:02:44.318Z,-6.30
2022-11-20T03:08:46.339Z,-6.30
2022-11-20T03:14:52.771Z,-6.30
2022-11-20T03:20:59.921Z,-6.40
2022-11-20T03:27:01.953Z,-6.40
2022-11-20T03:33:03.976Z,-6.40
2022-11-20T03:39:05.893Z,-6.40
2022-11-20T03:45:08.374Z,-6.40
2022-11-20T03:51:15.833Z,-6.50
2022-11-20T03:57:17.744Z,-6.50
2022-11-20T04:03:19.640Z,-6.50
2022-11-20T04:09:21.705Z,-6.50
2022-11-20T04:15:23.754Z,-6.60
2022-11-20T04:21:26.723Z,-6.70
2022-11-20T04:27:28.652Z,-6.60
2022-11-20T04:33:34.124Z,-6.60
2022-11-20T04:39:36.374Z,-6.70
2022-11-20T04:45:38.297Z,-6.70
2022-11-20T04:51:40.270Z,-6.60
2022-11-20T04:57:42.193Z,-6.60
2022-11-20T05:03:45.392Z,-6.60
2022-11-20T05:09:47.291Z,-6.70
2022-11-20T05:15:49.267Z,-6.70
2022-11-20T05:21:51.497Z,-6.80
2022-11-20T05:27:54.396Z,-6.80
2022-11-20T05:33:58.207Z,-6.80
2022-11-20T05:40:00.395Z,-6.90
2022-11-20T05:46:02.630Z,-6.90
2022-11-20T05:52:04.784Z,-6.80
2022-11-20T05:58:06.732Z,-6.90
2022-11-20T06:04:08.650Z,-6.90
2022-11-20T06:10:11.521Z,-7.00
2022-11-20T06:16:16.117Z,-7.00
2022-11-20T06:22:17.995Z,-7.00
2022-11-20T06:28:19.943Z,-7.00
2022-11-20T06:34:21.817Z,-7.00
2022-11-20T06:40:23.658Z,-7.10
2022-11-20T06:46:25.584Z,-7.10
2022-11-20T06:52:27.467Z,-7.10
2022-11-20T06:58:32.046Z,-7.00
2022-11-20T07:04:33.952Z,-7.00
2022-11-20T07:10:36.324Z,-6.90
2022-11-20T07:16:38.278Z,-6.80
2022-11-20T07:22:40.538Z,-6.70
2022-11-20T07:28:46.120Z,-6.50
2022-11-20T07:34:48.078Z,-6.50
2022-11-20T07:40:54.146Z,-6.60
2022-11-20T07:46:56.084Z,-6.60
2022-11-20T07:53:07.635Z,-6.50
2022-11-20T07:59:09.509Z,-6.40
2022-11-20T08:05:11.661Z,-6.30
2022-11-20T08:11:32.198Z,-6.10
2022-11-20T08:17:34.093Z,-5.70
2022-11-20T08:23:35.980Z,-5.30
2022-11-20T08:29:37.946Z,-5.00
2022-11-20T08:35:39.952Z,-4.70
2022-11-20T08:41:41.887Z,-4.40
2022-11-20T08:47:44.357Z,-4.10
2022-11-20T08:53:46.461Z,-3.80
2022-11-20T09:00:05.582Z,-3.50
2022-11-20T09:06:09.081Z,-3.40
2022-11-20T09:12:11.010Z,-3.20
2022-11-20T09:18:13.701Z,-3.00
2022-11-20T09:24:15.599Z,-2.80
2022-11-20T09:30:17.773Z,-2.60
2022-11-20T09:36:19.741Z,-2.40
2022-11-20T09:42:47.737Z,-2.30
2022-11-20T09:49:19.375Z,-2.00
2022-11-20T09:55:22.481Z,-1.80
2022-11-20T10:01:30.233Z,-1.50
2022-11-20T10:07:56.449Z,-1.40
2022-11-20T10:14:16.169Z,-1.20
2022-11-20T10:20:47.376Z,-1.10
2022-11-20T10:27:06.817Z,-0.90
2022-11-20T10:33:22.905Z,-0.80
2022-11-20T10:39:36.344Z,-0.50
2022-11-20T10:45:56.927Z,-0.30
2022-11-20T10:52:30.508Z,-0.20
2022-11-20T10:59:02.576Z,0.00
2022-11-20T11:05:34.514Z,0.20
2022-11-20T11:11:36.389Z,0.20
2022-11-20T11:17:48.135Z,0.30
2022-11-20T11:24:13.516Z,0.30
2022-11-20T11:30:22.795Z,0.40
2022-11-20T11:36:26.087Z,0.50
2022-11-20T11:42:30.144Z,0.50
2022-11-20T11:48:32.063Z,0.60
2022-11-20T11:54:58.406Z,0.70
2022-11-20T12:01:22.607Z,0.70
2022-11-20T12:07:47.702Z,0.70
2022-11-20T12:14:25.140Z,0.80
2022-11-20T12:20:46.678Z,0.80
2022-11-20T12:26:59.643Z,0.90
2022-11-20T12:33:07.676Z,1.00
2022-11-20T12:39:36.534Z,1.10
2022-11-20T12:46:13.077Z,1.10
2022-11-20T12:52:49.529Z,1.20
2022-11-20T12:58:51.447Z,1.20
2022-11-20T13:05:18.337Z,1.30
2022-11-20T13:11:29.293Z,1.40
2022-11-20T13:17:54.977Z,1.50
2022-11-20T13:24:27.366Z,1.50
2022-11-20T13:30:31.124Z,1.50
2022-11-20T13:36:33.572Z,1.60
2022-11-20T13:42:46.671Z,1.60
2022-11-20T13:48:48.717Z,1.60
2022-11-20T13:55:07.532Z,1.60
2022-11-20T14:01:11.342Z,1.50
2022-11-20T14:07:14.259Z,1.30
2022-11-20T14:13:20.824Z,1.10
2022-11-20T14:19:26.026Z,0.90
2022-11-20T14:25:28.308Z,0.80
2022-11-20T14:31:30.701Z,0.60
2022-11-20T14:37:35.271Z,0.30
2022-11-20T14:43:38.823Z,0.00
2022-11-20T14:49:41.813Z,-0.30
2022-11-20T14:55:44.085Z,-0.60
2022-11-20T15:02:06.854Z,-0.80
2022-11-20T15:08:11.575Z,-1.00
2022-11-20T15:14:13.452Z,-1.30
2022-11-20T15:20:17.679Z,-1.50
2022-11-20T15:26:26.658Z,-1.70
2022-11-20T15:32:28.526Z,-1.90
2022-11-20T15:38:30.452Z,-2.00
2022-11-20T15:44:32.456Z,-2.10
2022-11-20T15:50:38.817Z,-2.20
2022-11-20T16:04:28.261Z,-2.20
2022-11-20T16:10:30.712Z,-2.10
2022-11-20T16:16:37.365Z,-1.90
2022-11-20T16:22:39.235Z,-1.90
2022-11-20T16:28:41.390Z,-1.70
2022-11-20T16:34:43.289Z,-1.70
2022-11-20T16:40:46.288Z,-1.60
2022-11-20T16:46:48.211Z,-1.50
2022-11-20T16:52:50.121Z,-1.40
2022-11-20T16:58:55.833Z,-1.40
2022-11-20T17:04:57.742Z,-1.50
2022-11-20T17:11:08.799Z,-1.40
2022-11-20T17:17:10.740Z,-1.30
2022-11-20T17:23:12.659Z,-1.20
2022-11-20T17:29:16.906Z,-1.10
2022-11-20T17:35:18.762Z,-0.90
2022-11-20T17:41:25.950Z,-0.70
2022-11-20T17:47:27.816Z,-0.60
2022-11-20T17:53:34.589Z,-0.50
2022-11-20T17:59:37.846Z,-0.40
2022-11-20T18:05:39.822Z,-0.40
2022-11-20T18:11:43.360Z,-0.30
2022-11-20T18:17:45.231Z,-0.30
2022-11-20T18:23:47.129Z,-0.20
2022-11-20T18:29:52.098Z,-0.20
2022-11-20T18:35:54.329Z,-0.10
2022-11-20T18:42:14.768Z,0.00
2022-11-20T18:48:16.699Z,0.10
2022-11-20T18:54:18.813Z,0.10
2022-11-20T19:00:21.074Z,0.10
2022-11-20T19:06:23.314Z,0.20
2022-11-20T19:12:25.309Z,0.20
2022-11-20T19:18:28.493Z,0.30
2022-11-20T19:24:30.382Z,0.30
2022-11-20T19:30:33.389Z,0.30
2022-11-20T19:36:43.213Z,0.30
2022-11-20T19:42:46.585Z,0.30
2022-11-20T19:48:48.695Z,0.20
2022-11-20T19:54:50.771Z,0.20
2022-11-20T20:00:52.681Z,0.10
2022-11-20T20:06:54.649Z,0.10
2022-11-20T20:12:57.192Z,0.10
2022-11-20T20:19:01.786Z,0.00
2022-11-20T20:25:03.875Z,0.00
2022-11-20T20:31:07.880Z,-0.10
2022-11-20T20:37:09.735Z,-0.10
2022-11-20T20:43:11.603Z,-0.20
2022-11-20T20:49:13.533Z,-0.20
2022-11-20T20:55:15.498Z,-0.20
2022-11-20T21:01:19.398Z,-0.10
2022-11-20T21:07:21.663Z,-0.20
2022-11-20T21:13:24.070Z,-0.10
2022-11-20T21:19:26.054Z,-0.10
2022-11-20T21:25:28.007Z,-0.10
2022-11-20T21:31:31.140Z,0.00
2022-11-20T21:37:36.017Z,0.00
2022-11-20T21:43:42.911Z,0.00
2022-11-20T21:49:44.865Z,0.00
2022-11-20T21:55:54.475Z,0.00
2022-11-20T22:01:56.437Z,0.10
2022-11-20T22:07:58.400Z,0.10
2022-11-20T22:14:18.668Z,0.10
2022-11-20T22:20:20.566Z,0.10
2022-11-20T22:26:25.468Z,0.10
2022-11-20T22:32:27.334Z,0.10
2022-11-20T22:38:29.854Z,0.10
2022-11-20T22:44:31.861Z,0.10
2022-11-20T22:50:33.801Z,0.10
2022-11-20T22:56:35.690Z,0.10
2022-11-20T23:02:37.531Z,0.20
2022-11-20T23:08:40.691Z,0.20
2022-11-20T23:14:42.618Z,0.30
2022-11-20T23:20:44.513Z,0.30
2022-11-20T23:26:47.976Z,0.30
2022-11-20T23:32:49.897Z,0.30
2022-11-20T23:38:52.385Z,0.30
2022-11-20T23:44:54.235Z,0.30
2022-11-20T23:50:56.852Z,0.30
2022-11-20T23:56:58.774Z,0.40
